createdAt,value
2022-09-12T00:01:04.303Z,10.90
2022-09-12T00:03:31.115Z,10.80
2022-09-12T00:05:58.058Z,10.80
2022-09-12T00:08:24.906Z,10.70
2022-09-12T00:10:51.869Z,10.70
2022-09-12T00:13:18.698Z,10.70
2022-09-12T00:15:45.514Z,10.60
2022-09-12T00:18:16.750Z,10.50
2022-09-12T00:20:47.410Z,10.50
2022-09-12T00:23:14.997Z,10.40
2022-09-12T00:25:43.713Z,10.40
2022-09-12T00:28:11.789Z,10.30
2022-09-12T00:30:43.100Z,10.30
2022-09-12T00:33:11.947Z,10.30
2022-09-12T00:35:47.643Z,10.30
2022-09-12T00:38:16.044Z,10.30
2022-09-12T00:40:43.846Z,10.30
2022-09-12T00:43:33.067Z,10.20
2022-09-12T00:46:13.935Z,10.20
2022-09-12T00:48:50.429Z,10.30
2022-09-12T00:51:19.111Z,10.30
2022-09-12T00:53:48.039Z,10.20
2022-09-12T00:56:17.393Z,10.20
2022-09-12T00:58:51.574Z,10.30
2022-09-12T01:01:19.476Z,10.30
2022-09-12T01:03:46.374Z,10.30
2022-09-12T01:06:23.853Z,10.30
2022-09-12T01:08:52.626Z,10.30
2022-09-12T01:11:21.173Z,10.40
2022-09-12T01:13:49.002Z,10.30
2022-09-12T01:16:16.263Z,10.30
2022-09-12T01:18:58.042Z,10.20
2022-09-12T01:21:40.768Z,10.20
2022-09-12T01:24:30.563Z,10.10
2022-09-12T01:27:12.405Z,10.00
2022-09-12T01:29:56.750Z,9.90
2022-09-12T01:32:55.612Z,9.90
2022-09-12T01:35:41.095Z,9.70
2022-09-12T01:38:13.640Z,9.70
2022-09-12T01:40:58.579Z,9.60
2022-09-12T01:43:45.787Z,9.60
2022-09-12T01:46:22.964Z,9.70
2022-09-12T01:49:16.606Z,9.70
2022-09-12T01:52:02.445Z,9.70
2022-09-12T01:55:00.875Z,9.80
2022-09-12T01:57:38.291Z,9.80
2022-09-12T02:00:10.042Z,9.90
2022-09-12T02:02:53.702Z,9.90
2022-09-12T02:05:32.594Z,9.90
2022-09-12T02:08:23.189Z,9.80
2022-09-12T02:10:55.066Z,9.70
2022-09-12T02:13:50.117Z,9.60
2022-09-12T02:16:19.436Z,9.60
2022-09-12T02:18:53.234Z,9.50
2022-09-12T02:21:22.657Z,9.40
2022-09-12T02:23:58.765Z,9.40
2022-09-12T02:26:36.684Z,9.30
2022-09-12T02:29:04.536Z,9.40
2022-09-12T02:31:40.737Z,9.40
2022-09-12T02:34:16.058Z,9.50
2022-09-12T02:36:57.985Z,9.40
2022-09-12T02:39:25.047Z,9.40
2022-09-12T02:41:53.063Z,9.30
2022-09-12T02:44:20.512Z,9.20
2022-09-12T02:46:50.787Z,9.20
2022-09-12T02:49:17.962Z,9.20
2022-09-12T02:51:46.631Z,9.10
2022-09-12T02:54:16.885Z,9.10
2022-09-12T02:56:45.580Z,9.10
2022-09-12T02:59:16.373Z,9.00
2022-09-12T03:02:18.305Z,9.10
2022-09-12T03:05:06.719Z,9.10
2022-09-12T03:08:00.224Z,9.00
2022-09-12T03:11:04.525Z,8.90
2022-09-12T03:14:08.767Z,8.90
2022-09-12T03:17:00.095Z,8.90
2022-09-12T03:19:56.243Z,8.90
2022-09-12T03:22:26.285Z,8.90
2022-09-12T03:25:11.118Z,8.90
2022-09-12T03:27:44.893Z,8.80
2022-09-12T03:30:12.749Z,8.80
2022-09-12T03:32:49.071Z,8.70
2022-09-12T03:35:22.727Z,8.70
2022-09-12T03:37:51.593Z,8.80
2022-09-12T03:40:19.242Z,8.80
2022-09-12T03:42:46.054Z,8.90
2022-09-12T03:45:12.885Z,8.90
2022-09-12T03:47:40.445Z,8.80
2022-09-12T03:50:07.761Z,8.80
2022-09-12T03:52:34.980Z,8.70
2022-09-12T03:55:01.935Z,8.70
2022-09-12T03:57:28.779Z,8.60
2022-09-12T03:59:55.654Z,8.60
2022-09-12T04:02:22.478Z,8.60
2022-09-12T04:04:49.313Z,8.70
2022-09-12T04:07:17.030Z,8.70
2022-09-12T04:09:44.226Z,8.70
2022-09-12T04:12:11.542Z,8.70
2022-09-12T04:14:38.655Z,8.70
2022-09-12T04:17:05.699Z,8.70
2022-09-12T04:19:32.574Z,8.70
2022-09-12T04:22:02.198Z,8.70
2022-09-12T04:24:29.075Z,8.60
2022-09-12T04:26:56.051Z,8.50
2022-09-12T04:29:22.913Z,8.60
2022-09-12T04:31:50.039Z,8.60
2022-09-12T04:34:16.884Z,8.70
2022-09-12T04:36:43.841Z,8.70
2022-09-12T04:39:11.508Z,8.80
2022-09-12T04:41:39.982Z,8.90
2022-09-12T04:44:10.490Z,9.00
2022-09-12T04:46:40.373Z,8.90
2022-09-12T04:49:07.422Z,8.80
2022-09-12T04:51:36.676Z,8.70
2022-09-12T04:54:07.829Z,8.70
2022-09-12T04:56:38.798Z,8.70
2022-09-12T04:59:06.314Z,8.80
2022-09-12T05:01:33.687Z,8.80
2022-09-12T05:04:00.571Z,8.80
2022-09-12T05:06:31.166Z,8.90
2022-09-12T05:08:59.209Z,8.90
2022-09-12T05:11:46.878Z,9.10
2022-09-12T05:14:16.506Z,9.10
2022-09-12T05:16:47.198Z,9.20
2022-09-12T05:19:15.970Z,9.20
2022-09-12T05:21:42.795Z,9.30
2022-09-12T05:24:11.254Z,9.40
2022-09-12T05:26:38.405Z,9.40
2022-09-12T05:29:07.189Z,9.50
2022-09-12T05:31:34.841Z,9.60
2022-09-12T05:34:05.943Z,9.80
2022-09-12T05:36:33.349Z,9.90
2022-09-12T05:39:00.855Z,10.10
2022-09-12T05:41:33.873Z,10.30
2022-09-12T05:44:03.060Z,10.40
2022-09-12T05:46:32.271Z,10.60
2022-09-12T05:49:04.528Z,10.70
2022-09-12T05:51:34.545Z,10.90
2022-09-12T05:54:06.190Z,11.00
2022-09-12T05:56:35.057Z,11.00
2022-09-12T05:59:07.051Z,11.20
2022-09-12T06:01:35.185Z,11.20
2022-09-12T06:04:04.685Z,11.40
2022-09-12T06:06:35.863Z,11.50
2022-09-12T06:09:04.738Z,11.60
2022-09-12T06:11:34.676Z,11.70
2022-09-12T06:14:01.798Z,11.80
2022-09-12T06:16:31.354Z,11.90
2022-09-12T06:19:00.609Z,12.10
2022-09-12T06:21:28.479Z,12.20
2022-09-12T06:23:55.887Z,12.40
2022-09-12T06:26:25.542Z,12.50
2022-09-12T06:28:54.465Z,12.70
2022-09-12T06:31:27.954Z,12.80
2022-09-12T06:33:56.158Z,13.00
2022-09-12T06:36:25.449Z,13.30
2022-09-12T06:39:04.395Z,13.60
2022-09-12T06:41:32.019Z,13.80
2022-09-12T06:44:00.015Z,14.10
2022-09-12T06:46:27.607Z,14.30
2022-09-12T06:48:57.009Z,14.60
2022-09-12T06:51:24.610Z,14.70
2022-09-12T06:53:52.342Z,14.70
2022-09-12T06:56:21.418Z,14.80
2022-09-12T06:58:50.107Z,15.10
2022-09-12T07:01:19.533Z,15.30
2022-09-12T07:03:55.094Z,15.40
2022-09-12T07:06:24.846Z,15.60
2022-09-12T07:08:51.651Z,15.60
2022-09-12T07:11:22.423Z,15.70
2022-09-12T07:13:50.950Z,15.90
2022-09-12T07:16:19.887Z,16.00
2022-09-12T07:18:54.682Z,16.10
2022-09-12T07:21:22.103Z,16.30
2022-09-12T07:23:49.507Z,16.50
2022-09-12T07:26:16.870Z,16.80
2022-09-12T07:28:44.187Z,16.90
2022-09-12T07:31:16.274Z,17.10
2022-09-12T07:33:43.612Z,17.40
2022-09-12T07:36:16.323Z,17.60
2022-09-12T07:38:44.019Z,17.90
2022-09-12T07:41:31.234Z,18.20
2022-09-12T07:43:59.751Z,18.40
2022-09-12T07:46:29.668Z,18.50
2022-09-12T07:48:57.976Z,18.70
2022-09-12T07:51:26.759Z,18.90
2022-09-12T07:53:53.770Z,19.10
2022-09-12T07:56:22.047Z,19.10
2022-09-12T07:58:51.037Z,19.20
2022-09-12T08:01:20.554Z,19.30
2022-09-12T08:03:49.232Z,19.30
2022-09-12T08:06:21.256Z,19.20
2022-09-12T08:08:48.923Z,19.20
2022-09-12T08:11:18.435Z,19.20
2022-09-12T08:13:46.294Z,19.40
2022-09-12T08:16:18.327Z,19.30
2022-09-12T08:18:45.782Z,19.40
2022-09-12T08:21:17.845Z,19.60
2022-09-12T08:23:45.143Z,19.60
2022-09-12T08:26:12.980Z,19.80
2022-09-12T08:28:43.449Z,20.00
2022-09-12T08:31:19.019Z,20.20
2022-09-12T08:33:46.537Z,20.20
2022-09-12T08:36:15.009Z,20.40
2022-09-12T08:38:44.230Z,20.50
2022-09-12T08:41:44.549Z,20.50
2022-09-12T08:44:20.131Z,20.80
2022-09-12T08:47:10.728Z,20.80
2022-09-12T08:49:57.178Z,20.60
2022-09-12T08:52:40.214Z,20.50
2022-09-12T08:55:46.395Z,20.60
2022-09-12T08:58:22.823Z,20.80
2022-09-12T09:00:58.222Z,20.90
2022-09-12T09:03:33.369Z,20.90
2022-09-12T09:06:27.230Z,21.00
2022-09-12T09:09:10.192Z,21.20
2022-09-12T09:11:52.403Z,21.40
2022-09-12T09:14:49.573Z,21.50
2022-09-12T09:17:21.657Z,21.70
2022-09-12T09:20:02.405Z,21.70
2022-09-12T09:22:38.409Z,22.00
2022-09-12T09:25:13.773Z,22.10
2022-09-12T09:28:02.272Z,22.10
2022-09-12T09:30:29.954Z,21.90
2022-09-12T09:33:01.994Z,22.00
2022-09-12T09:35:44.970Z,22.40
2022-09-12T09:38:17.410Z,22.80
2022-09-12T09:41:23.135Z,23.10
2022-09-12T09:43:50.123Z,22.70
2022-09-12T09:46:16.968Z,22.60
2022-09-12T09:48:49.552Z,22.40
2022-09-12T09:51:19.108Z,22.20
2022-09-12T09:53:53.138Z,22.30
2022-09-12T09:56:38.091Z,22.50
2022-09-12T09:59:17.019Z,22.50
2022-09-12T10:01:49.883Z,22.70
2022-09-12T10:04:26.139Z,23.10
2022-09-12T10:06:54.710Z,23.20
2022-09-12T10:09:25.057Z,23.40
2022-09-12T10:11:53.683Z,23.60
2022-09-12T10:14:37.793Z,23.80
2022-09-12T10:17:33.183Z,24.10
2022-09-12T10:20:20.548Z,23.70
2022-09-12T10:22:49.220Z,23.10
2022-09-12T10:25:18.976Z,22.70
2022-09-12T10:27:54.522Z,22.40
2022-09-12T10:30:24.994Z,21.90
2022-09-12T10:32:52.126Z,21.60
2022-09-12T10:35:25.062Z,21.80
2022-09-12T10:37:56.118Z,22.20
2022-09-12T10:40:28.602Z,22.90
2022-09-12T10:42:58.122Z,23.30
2022-09-12T10:45:26.813Z,23.50
2022-09-12T10:47:55.667Z,23.50
2022-09-12T10:50:36.282Z,23.70
2022-09-12T10:53:24.811Z,23.70
2022-09-12T10:56:14.391Z,23.80
2022-09-12T10:58:59.197Z,24.10
2022-09-12T11:01:47.193Z,24.30
2022-09-12T11:04:32.965Z,24.30
2022-09-12T11:07:18.230Z,24.40
2022-09-12T11:10:09.539Z,24.50
2022-09-12T11:13:02.669Z,24.50
2022-09-12T11:15:52.133Z,24.70
2022-09-12T11:18:35.867Z,24.30
2022-09-12T11:21:23.959Z,24.30
2022-09-12T11:24:15.208Z,24.30
2022-09-12T11:26:46.328Z,24.40
2022-09-12T11:29:41.273Z,24.70
2022-09-12T11:32:14.086Z,24.90
2022-09-12T11:34:53.431Z,25.10
2022-09-12T11:37:42.160Z,24.80
2022-09-12T11:40:27.915Z,24.70
2022-09-12T11:43:02.108Z,24.20
2022-09-12T11:45:41.205Z,24.30
2022-09-12T11:48:16.096Z,24.10
2022-09-12T11:50:42.894Z,24.30
2022-09-12T11:53:23.506Z,24.20
2022-09-12T11:56:04.194Z,24.40
2022-09-12T11:58:31.165Z,24.40
2022-09-12T12:01:11.656Z,24.60
2022-09-12T12:03:46.771Z,25.00
2022-09-12T12:06:25.777Z,25.10
2022-09-12T12:08:53.027Z,25.20
2022-09-12T12:11:48.843Z,25.40
2022-09-12T12:14:44.211Z,25.40
2022-09-12T12:17:22.867Z,25.50
2022-09-12T12:20:04.281Z,25.30
2022-09-12T12:22:33.760Z,25.40
2022-09-12T12:25:12.259Z,25.50
2022-09-12T12:27:53.307Z,25.70
2022-09-12T12:30:29.448Z,25.70
2022-09-12T12:33:12.976Z,25.70
2022-09-12T12:36:10.262Z,25.60
2022-09-12T12:38:38.971Z,25.70
2022-09-12T12:41:17.696Z,25.60
2022-09-12T12:43:49.044Z,25.40
2022-09-12T12:46:17.815Z,25.00
2022-09-12T12:48:56.238Z,24.80
2022-09-12T12:51:54.215Z,24.90
2022-09-12T12:54:39.890Z,24.80
2022-09-12T12:57:30.991Z,24.60
2022-09-12T13:00:19.286Z,24.40
2022-09-12T13:03:06.836Z,24.20
2022-09-12T13:05:56.395Z,23.90
2022-09-12T13:08:35.592Z,23.70
2022-09-12T13:11:14.807Z,23.90
2022-09-12T13:13:57.368Z,24.00
2022-09-12T13:16:38.124Z,24.30
2022-09-12T13:19:14.835Z,24.50
2022-09-12T13:22:00.473Z,24.70
2022-09-12T13:24:27.612Z,24.70
2022-09-12T13:26:54.912Z,24.50
2022-09-12T13:29:24.341Z,24.30
2022-09-12T13:31:59.671Z,23.90
2022-09-12T13:34:35.270Z,23.70
2022-09-12T13:37:26.423Z,23.70
2022-09-12T13:40:17.267Z,23.50
2022-09-12T13:42:48.560Z,23.50
2022-09-12T13:45:28.597Z,23.50
2022-09-12T13:48:00.481Z,23.40
2022-09-12T13:50:33.972Z,23.40
2022-09-12T13:53:06.923Z,23.60
2022-09-12T13:55:40.565Z,23.70
2022-09-12T13:58:23.585Z,23.70
2022-09-12T14:01:10.824Z,23.90
2022-09-12T14:04:19.231Z,24.00
2022-09-12T14:06:50.101Z,24.00
2022-09-12T14:09:26.910Z,23.90
2022-09-12T14:11:53.813Z,24.00
2022-09-12T14:14:31.253Z,23.90
2022-09-12T14:16:59.234Z,24.00
2022-09-12T14:19:27.465Z,23.90
2022-09-12T14:21:55.514Z,23.80
2022-09-12T14:24:24.422Z,23.90
2022-09-12T14:26:54.251Z,23.90
2022-09-12T14:29:22.482Z,23.80
2022-09-12T14:32:02.923Z,23.70
2022-09-12T14:34:30.161Z,23.60
2022-09-12T14:36:58.469Z,23.50
2022-09-12T14:39:33.014Z,23.40
2022-09-12T14:42:18.399Z,23.50
2022-09-12T14:45:01.729Z,23.40
2022-09-12T14:47:38.318Z,23.30
2022-09-12T14:50:14.958Z,23.20
2022-09-12T14:52:43.880Z,23.10
2022-09-12T14:55:16.696Z,23.00
2022-09-12T14:57:44.599Z,22.90
2022-09-12T15:00:11.510Z,22.80
2022-09-12T15:02:42.709Z,22.90
2022-09-12T15:05:12.605Z,22.90
2022-09-12T15:07:53.695Z,22.80
2022-09-12T15:10:34.699Z,22.80
2022-09-12T15:13:14.308Z,22.80
2022-09-12T15:15:44.259Z,22.70
2022-09-12T15:18:11.375Z,22.70
2022-09-12T15:20:40.153Z,22.60
2022-09-12T15:23:14.670Z,22.60
2022-09-12T15:25:41.545Z,22.60
2022-09-12T15:28:20.261Z,22.50
2022-09-12T15:30:50.028Z,22.50
2022-09-12T15:33:22.883Z,22.40
2022-09-12T15:35:50.711Z,22.30
2022-09-12T15:38:17.667Z,22.20
2022-09-12T15:40:46.797Z,22.10
2022-09-12T15:43:14.163Z,22.10
2022-09-12T15:45:43.291Z,22.00
2022-09-12T15:48:10.278Z,21.90
2022-09-12T15:50:37.230Z,21.90
2022-09-12T15:53:04.101Z,22.00
2022-09-12T15:55:34.608Z,21.90
2022-09-12T15:58:06.310Z,21.70
2022-09-12T16:00:34.071Z,21.60
2022-09-12T16:03:01.186Z,21.40
2022-09-12T16:05:28.174Z,21.30
2022-09-12T16:07:55.609Z,21.20
2022-09-12T16:10:25.790Z,21.10
2022-09-12T16:12:52.957Z,20.90
2022-09-12T16:15:22.475Z,20.80
2022-09-12T16:17:49.810Z,20.60
2022-09-12T16:20:17.139Z,20.40
2022-09-12T16:22:44.009Z,20.10
2022-09-12T16:25:11.311Z,20.00
2022-09-12T16:27:38.569Z,19.80
2022-09-12T16:30:07.205Z,19.70
2022-09-12T16:32:34.133Z,19.50
2022-09-12T16:35:01.102Z,19.40
2022-09-12T16:37:28.531Z,19.30
2022-09-12T16:39:55.715Z,19.10
2022-09-12T16:42:23.007Z,18.90
2022-09-12T16:44:49.832Z,18.80
2022-09-12T16:47:16.728Z,18.70
2022-09-12T16:49:44.123Z,18.60
2022-09-12T16:52:11.518Z,18.40
2022-09-12T16:54:38.412Z,18.40
2022-09-12T16:57:06.522Z,18.30
2022-09-12T16:59:33.370Z,18.20
2022-09-12T17:02:00.338Z,18.00
2022-09-12T17:04:27.525Z,17.70
2022-09-12T17:06:54.567Z,17.60
2022-09-12T17:09:22.146Z,17.40
2022-09-12T17:11:50.273Z,17.30
2022-09-12T17:14:17.287Z,17.20
2022-09-12T17:16:50.985Z,17.00
2022-09-12T17:19:26.654Z,17.00
2022-09-12T17:21:54.350Z,16.90
2022-09-12T17:24:21.791Z,16.80
2022-09-12T17:26:49.145Z,16.70
2022-09-12T17:29:16.967Z,16.60
2022-09-12T17:31:44.881Z,16.50
2022-09-12T17:34:16.197Z,16.40
2022-09-12T17:36:48.410Z,16.30
2022-09-12T17:39:15.783Z,16.20
2022-09-12T17:41:43.206Z,16.10
2022-09-12T17:44:13.469Z,16.10
2022-09-12T17:46:40.802Z,16.10
2022-09-12T17:49:14.630Z,16.00
2022-09-12T17:51:42.198Z,16.10
2022-09-12T17:54:12.919Z,16.00
2022-09-12T17:56:40.461Z,15.80
2022-09-12T17:59:08.777Z,15.70
2022-09-12T18:01:54.260Z,15.60
2022-09-12T18:04:21.220Z,15.50
2022-09-12T18:06:49.148Z,15.50
2022-09-12T18:09:21.214Z,15.40
2022-09-12T18:11:49.360Z,15.40
2022-09-12T18:14:18.975Z,15.30
2022-09-12T18:16:46.549Z,15.30
2022-09-12T18:19:14.224Z,15.30
2022-09-12T18:21:41.563Z,15.20
2022-09-12T18:24:09.984Z,15.10
2022-09-12T18:26:37.219Z,14.90
2022-09-12T18:29:04.179Z,14.80
2022-09-12T18:31:31.224Z,14.60
2022-09-12T18:34:00.366Z,14.60
2022-09-12T18:36:27.912Z,14.50
2022-09-12T18:38:56.566Z,14.50
2022-09-12T18:41:24.901Z,14.60
2022-09-12T18:43:59.734Z,14.40
2022-09-12T18:46:29.005Z,14.40
2022-09-12T18:48:59.602Z,14.30
2022-09-12T18:51:31.989Z,14.30
2022-09-12T18:54:08.802Z,14.20
2022-09-12T18:56:38.362Z,14.20
2022-09-12T18:59:06.820Z,14.10
2022-09-12T19:01:38.216Z,14.20
2022-09-12T19:04:07.675Z,14.10
2022-09-12T19:06:40.602Z,14.00
2022-09-12T19:09:09.160Z,14.00
2022-09-12T19:11:40.821Z,14.10
2022-09-12T19:14:08.255Z,14.00
2022-09-12T19:16:35.460Z,13.90
2022-09-12T19:19:03.071Z,13.90
2022-09-12T19:21:31.544Z,13.90
2022-09-12T19:24:00.513Z,13.90
2022-09-12T19:26:27.649Z,14.00
2022-09-12T19:28:55.298Z,13.80
2022-09-12T19:31:23.363Z,13.70
2022-09-12T19:33:52.156Z,13.60
2022-09-12T19:36:44.322Z,13.50
2022-09-12T19:39:08.706Z,13.30
2022-09-12T19:41:36.291Z,13.30
2022-09-12T19:44:04.726Z,13.20
2022-09-12T19:46:31.713Z,13.10
2022-09-12T19:48:58.654Z,13.10
2022-09-12T19:51:25.677Z,13.10
2022-09-12T19:53:52.927Z,13.00
2022-09-12T19:56:20.398Z,13.00
2022-09-12T19:58:53.501Z,13.00
2022-09-12T20:01:25.090Z,12.90
2022-09-12T20:03:54.887Z,12.90
2022-09-12T20:06:22.724Z,12.90
2022-09-12T20:08:49.985Z,12.90
2022-09-12T20:11:22.115Z,12.90
2022-09-12T20:13:49.281Z,12.90
2022-09-12T20:16:22.636Z,12.80
2022-09-12T20:19:03.887Z,12.70
2022-09-12T20:21:32.663Z,12.60
2022-09-12T20:24:01.739Z,12.50
2022-09-12T20:26:28.614Z,12.50
2022-09-12T20:28:55.614Z,12.50
2022-09-12T20:31:22.471Z,12.40
2022-09-12T20:33:51.794Z,12.40
2022-09-12T20:36:20.419Z,12.30
2022-09-12T20:38:49.814Z,12.30
2022-09-12T20:41:18.210Z,12.20
2022-09-12T20:43:45.020Z,12.20
2022-09-12T20:46:12.195Z,12.20
2022-09-12T20:48:39.711Z,12.10
2022-09-12T20:51:07.410Z,12.10
2022-09-12T20:53:35.574Z,12.10
2022-09-12T20:56:03.685Z,12.00
2022-09-12T20:58:30.810Z,12.00
2022-09-12T21:00:57.586Z,12.00
2022-09-12T21:03:25.542Z,11.90
2022-09-12T21:05:52.665Z,11.90
2022-09-12T21:08:19.584Z,11.90
2022-09-12T21:10:46.375Z,11.90
2022-09-12T21:13:13.923Z,11.80
2022-09-12T21:15:41.703Z,11.80
2022-09-12T21:18:08.663Z,11.70
2022-09-12T21:20:35.502Z,11.70
2022-09-12T21:23:02.578Z,11.60
2022-09-12T21:25:30.233Z,11.50
2022-09-12T21:27:57.351Z,11.50
2022-09-12T21:30:24.253Z,11.50
2022-09-12T21:32:51.055Z,11.40
2022-09-12T21:35:17.879Z,11.40
2022-09-12T21:37:44.706Z,11.40
2022-09-12T21:40:11.652Z,11.40
2022-09-12T21:42:38.519Z,11.30
2022-09-12T21:45:06.308Z,11.30
2022-09-12T21:47:33.163Z,11.40
2022-09-12T21:49:59.998Z,11.30
2022-09-12T21:52:27.622Z,11.30
2022-09-12T21:54:54.423Z,11.30
2022-09-12T21:57:21.455Z,11.30
2022-09-12T21:59:48.232Z,11.20
2022-09-12T22:02:16.103Z,11.20
2022-09-12T22:04:42.959Z,11.20
2022-09-12T22:07:09.850Z,11.20
2022-09-12T22:09:36.687Z,11.20
2022-09-12T22:12:03.668Z,11.20
2022-09-12T22:14:30.522Z,11.10
2022-09-12T22:16:58.778Z,11.20
2022-09-12T22:19:26.400Z,11.10
2022-09-12T22:22:11.698Z,11.20
2022-09-12T22:24:39.569Z,11.20
2022-09-12T22:27:07.211Z,11.10
2022-09-12T22:29:34.931Z,11.10
2022-09-12T22:32:02.055Z,11.10
2022-09-12T22:34:29.798Z,11.20
2022-09-12T22:36:56.926Z,11.20
2022-09-12T22:39:24.127Z,11.10
2022-09-12T22:41:51.030Z,11.10
2022-09-12T22:44:17.928Z,11.00
2022-09-12T22:46:45.125Z,10.90
2022-09-12T22:49:12.800Z,10.80
2022-09-12T22:51:39.864Z,10.80
2022-09-12T22:54:07.667Z,10.90
2022-09-12T22:56:35.034Z,10.80
2022-09-12T22:59:01.963Z,10.90
2022-09-12T23:01:28.810Z,10.80
2022-09-12T23:03:55.666Z,10.90
2022-09-12T23:06:22.493Z,10.90
2022-09-12T23:08:49.332Z,10.80
2022-09-12T23:11:19.122Z,10.90
2022-09-12T23:13:47.827Z,10.90
2022-09-12T23:16:17.481Z,10.90
2022-09-12T23:18:44.758Z,10.80
2022-09-12T23:21:13.331Z,10.80
2022-09-12T23:23:40.662Z,10.70
2022-09-12T23:26:22.775Z,10.70
2022-09-12T23:28:52.925Z,10.70
2022-09-12T23:31:21.194Z,10.60
2022-09-12T23:33:49.549Z,10.50
2022-09-12T23:36:16.461Z,10.60
2022-09-12T23:38:45.767Z,10.50
2022-09-12T23:41:15.221Z,10.50
2022-09-12T23:43:43.166Z,10.60
2022-09-12T23:46:10.251Z,10.50
2022-09-12T23:48:37.371Z,10.50
2022-09-12T23:51:04.708Z,10.40
2022-09-12T23:53:32.116Z,10.40
2022-09-12T23:55:59.637Z,10.40
2022-09-12T23:58:26.452Z,10.30
